Time;durP1;ratioP1;P1;durP2;ratioP2;P2;SDS_P1;SDS_P2;PMS_P1;PMS_P2;Temp;Humidity;BMP_temperature;BMP_pressure;BME280_temperature;BME280_humidity;BME280_pressure;Samples;Min_cycle;Max_cycle;Signal;HPM_P1;HPM_P2
2020/12/13 00:00:21;;;;;;;65.57;30.53;;;8.60;99.90;;;;;;5052678;28;20259;-77
2020/12/13 00:02:47;;;;;;;65.47;31.80;;;8.60;99.90;;;;;;5034482;28;20533;-77
2020/12/13 00:05:13;;;;;;;59.30;31.80;;;8.70;99.90;;;;;;5055446;28;20241;-76
2020/12/13 00:07:39;;;;;;;71.40;30.13;;;8.60;99.90;;;;;;5040114;28;20863;-76
2020/12/13 00:10:05;;;;;;;65.43;33.03;;;8.70;99.90;;;;;;5062656;28;20359;-76
2020/12/13 00:12:31;;;;;;;72.73;31.33;;;8.70;99.90;;;;;;5057874;28;20726;-77
2020/12/13 00:14:56;;;;;;;65.80;31.50;;;8.60;99.90;;;;;;5042944;28;21027;-76
2020/12/13 00:17:22;;;;;;;60.43;31.80;;;8.60;99.90;;;;;;5064369;28;20224;-76
2020/12/13 00:19:48;;;;;;;61.40;28.67;;;8.60;99.90;;;;;;5054563;28;20278;-76
2020/12/13 00:22:13;;;;;;;56.37;28.33;;;8.60;99.90;;;;;;5053478;28;20242;-77
2020/12/13 00:24:39;;;;;;;64.90;31.13;;;8.60;99.90;;;;;;5063184;28;20216;-77
2020/12/13 00:27:05;;;;;;;72.27;30.60;;;8.60;99.90;;;;;;5034730;28;20661;-77
2020/12/13 00:29:31;;;;;;;68.40;29.27;;;8.60;99.90;;;;;;5014024;28;20440;-77
2020/12/13 00:31:56;;;;;;;63.50;33.70;;;8.60;99.90;;;;;;5019159;28;20239;-76
2020/12/13 00:34:22;;;;;;;67.80;34.10;;;8.60;99.90;;;;;;5054086;28;20331;-77
2020/12/13 00:36:50;;;;;;;59.00;31.47;;;8.50;99.90;;;;;;5055923;28;20307;-78
2020/12/13 00:39:16;;;;;;;61.90;31.03;;;8.50;99.90;;;;;;5063688;28;20208;-77
2020/12/13 00:41:47;;;;;;;63.43;31.37;;;8.50;99.90;;;;;;5033990;28;20458;-77
2020/12/13 00:44:13;;;;;;;70.07;34.73;;;8.50;99.90;;;;;;5023675;28;20695;-76
2020/12/13 00:46:39;;;;;;;62.60;31.27;;;8.50;99.90;;;;;;5023290;28;20472;-77
2020/12/13 00:49:05;;;;;;;63.70;33.43;;;8.50;99.90;;;;;;5042824;28;20231;-76
2020/12/13 00:51:30;;;;;;;67.83;34.07;;;8.50;99.90;;;;;;5039229;28;20437;-77
2020/12/13 00:53:56;;;;;;;64.20;35.43;;;8.50;99.90;;;;;;5056470;28;20744;-78
2020/12/13 00:56:21;;;;;;;72.23;37.37;;;8.50;99.90;;;;;;5044469;28;20667;-77
2020/12/13 00:58:47;;;;;;;61.97;31.23;;;8.50;99.90;;;;;;5043187;28;20796;-76
2020/12/13 01:01:13;;;;;;;65.70;35.37;;;8.50;99.90;;;;;;5057092;28;20204;-77
2020/12/13 01:03:39;;;;;;;63.33;32.43;;;8.50;99.90;;;;;;5027687;28;20205;-77
2020/12/13 01:06:04;;;;;;;57.53;33.23;;;8.50;99.90;;;;;;5042120;28;20223;-77
2020/12/13 01:08:30;;;;;;;64.60;31.30;;;8.50;99.90;;;;;;5045084;28;20212;-76
2020/12/13 01:10:56;;;;;;;64.77;34.57;;;8.50;99.90;;;;;;5057199;28;20416;-77
2020/12/13 01:13:21;;;;;;;59.63;32.93;;;8.50;99.90;;;;;;5057371;28;20230;-76
2020/12/13 01:15:49;;;;;;;68.87;31.47;;;8.50;99.90;;;;;;5064773;28;20216;-77
2020/12/13 01:18:15;;;;;;;71.30;34.33;;;8.50;99.90;;;;;;5037525;28;20323;-77
2020/12/13 01:20:40;;;;;;;59.83;31.87;;;8.60;99.90;;;;;;5054024;28;20433;-77
2020/12/13 01:23:06;;;;;;;60.90;32.33;;;8.50;99.90;;;;;;5068966;28;20223;-77
2020/12/13 01:25:32;;;;;;;51.70;29.67;;;8.50;99.90;;;;;;5006448;28;20208;-77
2020/12/13 01:27:57;;;;;;;55.73;29.33;;;8.60;99.90;;;;;;5056218;28;20451;-77
2020/12/13 01:30:23;;;;;;;66.90;31.80;;;8.60;99.90;;;;;;5047091;28;20208;-77
2020/12/13 01:32:49;;;;;;;57.57;29.60;;;8.60;99.90;;;;;;5023907;28;20311;-77
2020/12/13 01:35:14;;;;;;;55.67;31.03;;;8.50;99.90;;;;;;5029216;28;20747;-77
2020/12/13 01:37:40;;;;;;;53.10;30.67;;;8.50;99.90;;;;;;5041002;28;20220;-77
2020/12/13 01:40:07;;;;;;;59.33;31.10;;;8.50;99.90;;;;;;5057509;28;20217;-77
2020/12/13 01:42:51;;;;;;;49.07;27.73;;;8.60;99.90;;;;;;5041516;28;20219;-77
2020/12/13 01:45:18;;;;;;;54.47;29.20;;;8.50;99.90;;;;;;5037858;28;20427;-77
2020/12/13 01:47:46;;;;;;;58.93;28.07;;;8.60;99.90;;;;;;5037380;28;22221;-77
2020/12/13 01:50:27;;;;;;;47.53;29.77;;;8.50;99.90;;;;;;5038825;28;20560;-77
2020/12/13 01:53:12;;;;;;;61.63;30.50;;;8.60;99.90;;;;;;5057009;28;22293;-76
2020/12/13 01:55:38;;;;;;;59.60;29.00;;;8.50;99.90;;;;;;5056856;28;20409;-76
2020/12/13 01:58:07;;;;;;;62.00;29.53;;;8.50;99.90;;;;;;5068964;28;20399;-77
2020/12/13 02:00:33;;;;;;;63.57;29.43;;;8.50;99.90;;;;;;5055838;28;20467;-77
2020/12/13 02:03:01;;;;;;;55.37;30.10;;;8.50;99.90;;;;;;5039422;28;20422;-77
2020/12/13 02:05:29;;;;;;;66.30;27.53;;;8.50;99.90;;;;;;5071547;28;20442;-76
2020/12/13 02:07:55;;;;;;;53.83;28.07;;;8.50;99.90;;;;;;5039408;28;20422;-76
2020/12/13 02:10:22;;;;;;;57.80;29.67;;;8.60;99.90;;;;;;5038560;28;20431;-76
2020/12/13 02:12:48;;;;;;;61.70;31.63;;;8.60;99.90;;;;;;5056530;28;20417;-76
2020/12/13 02:15:21;;;;;;;59.90;29.93;;;8.60;99.90;;;;;;5085858;22;20418;-77
2020/12/13 02:17:47;;;;;;;54.83;29.97;;;8.60;99.90;;;;;;5017731;28;20418;-77
2020/12/13 02:20:14;;;;;;;59.00;31.30;;;8.50;99.90;;;;;;5031057;28;20421;-77
2020/12/13 02:22:48;;;;;;;50.67;28.07;;;8.60;99.90;;;;;;5027415;28;20646;-78
2020/12/13 02:25:21;;;;;;;63.47;31.50;;;8.60;99.90;;;;;;5042917;28;20401;-77
2020/12/13 02:27:51;;;;;;;64.70;29.37;;;8.60;99.90;;;;;;5029742;28;20418;-77
2020/12/13 02:30:17;;;;;;;64.93;29.50;;;8.60;99.90;;;;;;5030146;28;20454;-77
2020/12/13 02:32:43;;;;;;;55.40;31.17;;;8.50;99.90;;;;;;5045776;28;20431;-78
2020/12/13 02:35:10;;;;;;;58.20;30.53;;;8.60;99.90;;;;;;5040069;28;20215;-77
2020/12/13 02:37:35;;;;;;;51.00;28.73;;;8.60;99.90;;;;;;5050041;28;20444;-77
2020/12/13 02:40:02;;;;;;;59.20;30.10;;;8.60;99.90;;;;;;5041674;28;20409;-78
2020/12/13 02:42:28;;;;;;;66.80;31.27;;;8.60;99.90;;;;;;5034024;28;20212;-78
2020/12/13 02:44:54;;;;;;;58.30;27.77;;;8.60;99.90;;;;;;5030912;28;20924;-78
2020/12/13 02:47:19;;;;;;;64.70;30.40;;;8.60;99.90;;;;;;5058010;28;20205;-78
2020/12/13 02:49:45;;;;;;;68.00;29.70;;;8.60;99.90;;;;;;5043112;28;22025;-78
2020/12/13 02:52:11;;;;;;;66.17;33.60;;;8.60;99.90;;;;;;5025537;28;20223;-78
2020/12/13 02:54:37;;;;;;;64.47;31.87;;;8.60;99.90;;;;;;5047405;28;20611;-78
2020/12/13 02:57:06;;;;;;;65.10;32.07;;;8.60;99.90;;;;;;5043165;28;20480;-78
2020/12/13 02:59:31;;;;;;;54.93;30.20;;;8.50;99.90;;;;;;5030561;28;20419;-77
2020/12/13 03:01:57;;;;;;;60.50;30.53;;;8.50;99.90;;;;;;5029677;28;20492;-78
2020/12/13 03:04:23;;;;;;;63.83;30.63;;;8.60;99.90;;;;;;5014761;28;20216;-78
2020/12/13 03:06:48;;;;;;;57.13;28.17;;;8.60;99.90;;;;;;5025947;28;20224;-78
2020/12/13 03:09:14;;;;;;;70.10;32.27;;;8.60;99.90;;;;;;5055924;28;20212;-77
2020/12/13 03:11:41;;;;;;;59.47;28.93;;;8.60;99.90;;;;;;5022394;28;20610;-78
2020/12/13 03:14:07;;;;;;;76.00;35.60;;;8.60;99.90;;;;;;5043565;28;20221;-78
2020/12/13 03:16:33;;;;;;;66.93;33.80;;;8.60;99.90;;;;;;5038589;28;20445;-78
2020/12/13 03:18:58;;;;;;;59.90;32.13;;;8.50;99.90;;;;;;5039128;28;20392;-78
2020/12/13 03:21:24;;;;;;;62.23;32.67;;;8.60;99.90;;;;;;5059206;28;20757;-78
2020/12/13 03:23:50;;;;;;;71.57;33.40;;;8.60;99.90;;;;;;5040310;28;20689;-78
2020/12/13 03:26:15;;;;;;;62.63;32.20;;;8.60;99.90;;;;;;5021975;28;20210;-78
2020/12/13 03:28:42;;;;;;;67.50;33.30;;;8.60;99.90;;;;;;5040384;28;20632;-78
2020/12/13 03:31:08;;;;;;;65.80;31.70;;;8.60;99.90;;;;;;5009064;28;20223;-78
2020/12/13 03:33:33;;;;;;;69.00;32.73;;;8.60;99.90;;;;;;5038601;28;20454;-78
2020/12/13 03:35:59;;;;;;;59.63;31.40;;;8.60;99.90;;;;;;5019910;28;20214;-78
2020/12/13 03:38:25;;;;;;;65.03;32.00;;;8.60;99.90;;;;;;5025630;28;20251;-77
2020/12/13 03:40:50;;;;;;;64.67;31.90;;;8.60;99.90;;;;;;5036949;28;20218;-78
2020/12/13 03:43:16;;;;;;;56.70;29.70;;;8.60;99.90;;;;;;5007370;28;20212;-77
2020/12/13 03:45:42;;;;;;;60.57;32.63;;;8.70;99.90;;;;;;5052025;28;20259;-78
2020/12/13 03:48:07;;;;;;;59.73;31.30;;;8.60;99.90;;;;;;5035470;28;20996;-78
2020/12/13 03:50:39;;;;;;;60.63;31.87;;;8.60;99.90;;;;;;5025572;28;20218;-77
2020/12/13 03:53:08;;;;;;;60.23;32.00;;;8.50;99.90;;;;;;5041210;28;20226;-79
2020/12/13 03:55:34;;;;;;;55.10;32.20;;;8.60;99.90;;;;;;5021023;28;20413;-80
2020/12/13 03:58:01;;;;;;;61.00;32.13;;;8.60;99.90;;;;;;5036758;28;20451;-80
2020/12/13 04:00:27;;;;;;;60.33;33.30;;;8.60;99.90;;;;;;5035717;28;20211;-80
2020/12/13 04:02:54;;;;;;;62.23;33.47;;;8.60;99.90;;;;;;5049089;28;20922;-80
2020/12/13 04:05:22;;;;;;;61.47;30.83;;;8.60;99.90;;;;;;5051670;28;20425;-80
2020/12/13 04:07:47;;;;;;;65.07;32.87;;;8.60;99.90;;;;;;5051386;28;20420;-80
2020/12/13 04:10:14;;;;;;;53.87;30.00;;;8.60;99.90;;;;;;5049621;28;20451;-80
2020/12/13 04:12:41;;;;;;;55.17;32.00;;;8.60;99.90;;;;;;5050344;28;20217;-80
2020/12/13 04:15:07;;;;;;;58.30;31.27;;;8.60;99.90;;;;;;5055409;28;20388;-80
2020/12/13 04:17:33;;;;;;;52.27;31.13;;;8.60;99.90;;;;;;5062831;28;20424;-80
2020/12/13 04:19:59;;;;;;;56.57;28.20;;;8.60;99.90;;;;;;5045543;28;20947;-80
2020/12/13 04:22:25;;;;;;;52.60;28.87;;;8.60;99.90;;;;;;5041233;28;20220;-80
2020/12/13 04:24:50;;;;;;;49.10;28.83;;;8.60;99.90;;;;;;5036824;28;20235;-80
2020/12/13 04:27:16;;;;;;;54.80;29.73;;;8.70;99.90;;;;;;5039369;28;20527;-80
2020/12/13 04:30:05;;;;;;;46.77;27.93;;;8.60;99.90;;;;;;5020104;28;20251;-80
2020/12/13 04:32:31;;;;;;;57.20;28.17;;;8.60;99.90;;;;;;4981579;28;20215;-80
2020/12/13 04:34:57;;;;;;;49.70;29.40;;;8.60;99.90;;;;;;4952407;28;20411;-80
2020/12/13 04:37:25;;;;;;;52.83;28.67;;;8.60;99.90;;;;;;4959150;28;20266;-80
2020/12/13 04:39:52;;;;;;;56.77;31.20;;;8.60;99.90;;;;;;4943012;28;20216;-80
2020/12/13 04:42:19;;;;;;;48.07;29.00;;;8.60;99.90;;;;;;4949619;28;20411;-80
2020/12/13 04:44:46;;;;;;;55.27;28.43;;;8.60;99.90;;;;;;4961075;28;20581;-80
2020/12/13 04:47:17;;;;;;;54.70;29.70;;;8.60;99.90;;;;;;4944063;28;20407;-80
2020/12/13 04:49:47;;;;;;;54.83;31.47;;;8.60;99.90;;;;;;4974683;28;21167;-80
2020/12/13 04:52:14;;;;;;;58.10;31.90;;;8.60;99.90;;;;;;4963907;28;20416;-80
2020/12/13 04:54:50;;;;;;;56.00;30.10;;;8.60;99.90;;;;;;4960996;28;21015;-80
2020/12/13 04:57:40;;;;;;;64.13;31.07;;;8.60;99.90;;;;;;4972873;28;20538;-80
2020/12/13 05:00:05;;;;;;;54.47;32.37;;;8.60;99.90;;;;;;4888225;29;20432;-80
2020/12/13 05:02:32;;;;;;;58.53;30.03;;;8.60;99.90;;;;;;4906053;29;20441;-80
2020/12/13 05:04:58;;;;;;;62.37;32.93;;;8.60;99.90;;;;;;4896100;29;20233;-80
2020/12/13 05:07:23;;;;;;;51.80;30.43;;;8.60;99.90;;;;;;4923661;29;20399;-80
2020/12/13 05:09:54;;;;;;;61.90;32.03;;;8.70;99.90;;;;;;4957024;28;20441;-80
2020/12/13 05:12:24;;;;;;;52.50;32.10;;;8.60;99.90;;;;;;5014658;28;20678;-80
2020/12/13 05:15:16;;;;;;;58.93;31.70;;;8.60;99.90;;;;;;4999212;28;20429;-80
2020/12/13 05:17:42;;;;;;;65.20;32.10;;;8.60;99.90;;;;;;4926683;28;20444;-80
2020/12/13 05:20:08;;;;;;;62.43;33.00;;;8.70;99.90;;;;;;4890824;28;20497;-80
2020/12/13 05:22:37;;;;;;;57.30;33.17;;;8.60;99.90;;;;;;4926007;28;20440;-80
2020/12/13 05:25:11;;;;;;;58.10;31.97;;;8.60;99.90;;;;;;4961062;28;20217;-80
2020/12/13 05:27:40;;;;;;;52.30;32.33;;;8.70;99.90;;;;;;4937336;28;21385;-80
2020/12/13 05:30:06;;;;;;;55.63;31.00;;;8.70;99.90;;;;;;4927346;28;20912;-80
2020/12/13 05:32:34;;;;;;;66.00;33.50;;;8.60;99.90;;;;;;4916353;28;20406;-80
2020/12/13 05:35:01;;;;;;;58.50;32.57;;;8.60;99.90;;;;;;4929515;28;21325;-80
2020/12/13 05:37:29;;;;;;;55.60;29.77;;;8.70;99.90;;;;;;4931748;28;20945;-80
2020/12/13 05:39:55;;;;;;;60.33;31.53;;;8.70;99.90;;;;;;4978719;28;20382;-80
2020/12/13 05:42:32;;;;;;;54.60;31.00;;;8.60;99.90;;;;;;4965823;28;20430;-80
2020/12/13 05:48:04;;;;;;;55.13;31.00;;;8.60;99.90;;;;;;4978493;28;20995;-80
2020/12/13 05:52:55;;;;;;;49.83;29.10;;;8.60;99.90;;;;;;4979510;28;20464;-80
2020/12/13 05:55:21;;;;;;;61.93;32.70;;;8.60;99.90;;;;;;5023748;28;20416;-80
2020/12/13 05:57:50;;;;;;;47.67;30.47;;;8.60;99.90;;;;;;5023618;28;20400;-80
2020/12/13 06:00:17;;;;;;;60.37;30.57;;;8.60;99.90;;;;;;5022818;28;20209;-80
2020/12/13 06:02:49;;;;;;;61.77;32.43;;;8.50;99.90;;;;;;5033844;28;20483;-80
2020/12/13 06:05:15;;;;;;;63.57;31.10;;;8.50;99.90;;;;;;5018448;28;20411;-80
2020/12/13 06:07:51;;;;;;;57.30;28.13;;;8.60;99.90;;;;;;5018005;28;20436;-80
2020/12/13 06:10:24;;;;;;;64.20;30.57;;;8.50;99.90;;;;;;5022264;28;20444;-81
2020/12/13 06:12:59;;;;;;;52.97;31.30;;;8.50;99.90;;;;;;5022552;28;20436;-81
2020/12/13 06:15:27;;;;;;;56.27;32.40;;;8.50;99.90;;;;;;5021534;28;20392;-81
2020/12/13 06:17:52;;;;;;;57.23;31.13;;;8.50;99.90;;;;;;5077234;28;20431;-80
2020/12/13 06:20:18;;;;;;;67.77;31.67;;;8.50;99.90;;;;;;5072694;28;20415;-81
2020/12/13 06:22:45;;;;;;;61.40;30.73;;;8.60;99.90;;;;;;5060262;28;20231;-80
2020/12/13 06:25:11;;;;;;;59.80;31.00;;;8.60;99.90;;;;;;5072685;28;20204;-81
2020/12/13 06:27:39;;;;;;;52.93;30.10;;;8.60;99.90;;;;;;5042581;28;21224;-81
2020/12/13 06:30:09;;;;;;;56.73;29.67;;;8.60;99.90;;;;;;5056531;28;20387;-81
2020/12/13 06:32:43;;;;;;;59.33;30.10;;;8.60;99.90;;;;;;5039795;28;20442;-81
2020/12/13 06:35:09;;;;;;;60.23;28.03;;;8.60;99.90;;;;;;5043719;28;20465;-81
2020/12/13 06:37:38;;;;;;;55.53;29.10;;;8.60;99.90;;;;;;5042921;28;20451;-81
2020/12/13 06:40:09;;;;;;;51.63;27.07;;;8.60;99.90;;;;;;5026705;28;20434;-81
2020/12/13 06:42:40;;;;;;;63.77;30.07;;;8.50;99.90;;;;;;5041578;28;20470;-81
2020/12/13 06:45:08;;;;;;;48.50;28.00;;;8.50;99.90;;;;;;5025885;28;20895;-81
2020/12/13 06:47:45;;;;;;;61.83;30.97;;;8.60;99.90;;;;;;5073170;28;21090;-81
2020/12/13 06:50:21;;;;;;;57.30;29.40;;;8.60;99.90;;;;;;5071533;28;20457;-81
2020/12/13 06:52:49;;;;;;;44.57;24.97;;;8.50;99.90;;;;;;5049778;28;20393;-81
2020/12/13 06:55:17;;;;;;;53.17;27.70;;;8.50;99.90;;;;;;5055307;28;20416;-81
2020/12/13 06:57:45;;;;;;;46.03;26.67;;;8.50;99.90;;;;;;5054755;28;20619;-81
2020/12/13 07:00:13;;;;;;;52.67;26.83;;;8.50;99.90;;;;;;5025471;28;20828;-82
2020/12/13 07:02:58;;;;;;;47.50;27.60;;;8.50;99.90;;;;;;5053186;28;21244;-82
2020/12/13 07:05:45;;;;;;;52.37;26.70;;;8.40;99.90;;;;;;5070293;28;20772;-82
2020/12/13 07:08:14;;;;;;;40.67;24.03;;;8.40;99.90;;;;;;5043743;28;20743;-83
2020/12/13 07:10:44;;;;;;;48.90;26.20;;;8.30;99.90;;;;;;5040104;28;20501;-83
2020/12/13 07:13:14;;;;;;;47.33;27.20;;;8.30;99.90;;;;;;5074434;28;20448;-83
2020/12/13 07:16:02;;;;;;;46.00;26.00;;;8.30;99.90;;;;;;5011307;28;20471;-83
2020/12/13 07:18:31;;;;;;;49.73;25.63;;;8.30;99.90;;;;;;5048534;28;20405;-83
2020/12/13 07:20:57;;;;;;;47.43;27.80;;;8.30;99.90;;;;;;5064648;28;20413;-83
2020/12/13 07:23:25;;;;;;;50.10;25.77;;;8.30;99.90;;;;;;5040046;28;20490;-83
2020/12/13 07:25:52;;;;;;;47.43;25.57;;;8.30;99.90;;;;;;5045050;28;20865;-82
2020/12/13 07:28:19;;;;;;;47.37;26.80;;;8.30;99.90;;;;;;5031156;28;20379;-83
2020/12/13 07:30:46;;;;;;;44.87;25.17;;;8.30;99.90;;;;;;5072775;28;24937;-83
2020/12/13 07:33:11;;;;;;;49.80;26.30;;;8.30;99.90;;;;;;5043182;28;20452;-83
2020/12/13 07:35:37;;;;;;;51.40;29.00;;;8.40;99.90;;;;;;5053296;28;20410;-82
2020/12/13 07:38:03;;;;;;;43.73;25.50;;;8.40;99.90;;;;;;5046305;28;20213;-82
2020/12/13 07:40:29;;;;;;;39.27;24.30;;;8.30;99.90;;;;;;5038603;28;20413;-82
2020/12/13 07:42:58;;;;;;;46.30;23.40;;;8.30;99.90;;;;;;5028358;28;20432;-82
2020/12/13 07:45:24;;;;;;;52.13;26.43;;;8.30;99.90;;;;;;5044986;28;20406;-82
2020/12/13 07:48:00;;;;;;;49.10;25.63;;;8.30;99.90;;;;;;5044100;28;20445;-82
2020/12/13 07:50:46;;;;;;;48.63;25.40;;;8.40;99.90;;;;;;5045558;28;20224;-83
2020/12/13 07:53:22;;;;;;;40.40;24.07;;;8.30;99.90;;;;;;5076336;28;20512;-82
2020/12/13 07:55:47;;;;;;;47.70;24.80;;;8.30;99.90;;;;;;5049009;28;20406;-82
2020/12/13 07:58:21;;;;;;;49.50;27.23;;;8.30;99.90;;;;;;5024187;28;20464;-83
2020/12/13 08:00:47;;;;;;;43.90;26.83;;;8.30;99.90;;;;;;5063078;28;20196;-82
2020/12/13 08:03:13;;;;;;;42.27;26.10;;;8.30;99.90;;;;;;5076099;28;21237;-83
2020/12/13 08:05:44;;;;;;;42.40;25.90;;;8.30;99.90;;;;;;5041629;28;20404;-82
2020/12/13 08:08:11;;;;;;;55.77;29.10;;;8.30;99.90;;;;;;5041101;28;20513;-83
2020/12/13 08:10:38;;;;;;;43.90;26.73;;;8.30;99.90;;;;;;5039762;28;20423;-83
2020/12/13 08:13:07;;;;;;;43.40;26.17;;;8.30;99.90;;;;;;5043890;28;20450;-82
2020/12/13 08:15:33;;;;;;;48.57;27.70;;;8.30;99.90;;;;;;5044038;28;20969;-82
2020/12/13 08:18:12;;;;;;;58.70;28.80;;;8.30;99.90;;;;;;5025895;28;20434;-83
2020/12/13 08:20:43;;;;;;;51.43;27.47;;;8.40;99.90;;;;;;5056355;28;20900;-83
2020/12/13 08:23:11;;;;;;;56.70;30.70;;;8.30;99.90;;;;;;5077851;28;20398;-82
2020/12/13 08:25:37;;;;;;;46.20;27.93;;;8.30;99.90;;;;;;5026816;28;20436;-82
2020/12/13 08:28:06;;;;;;;40.30;26.00;;;8.30;99.90;;;;;;5042588;28;20418;-82
2020/12/13 08:30:33;;;;;;;46.50;28.07;;;8.20;99.90;;;;;;5038759;28;20401;-82
2020/12/13 08:33:00;;;;;;;46.50;26.43;;;8.20;99.90;;;;;;5041112;28;20471;-82
2020/12/13 08:35:32;;;;;;;43.17;27.57;;;8.20;99.90;;;;;;5036236;28;20413;-82
2020/12/13 08:38:00;;;;;;;39.70;25.83;;;8.30;99.90;;;;;;5044259;28;20445;-82
2020/12/13 08:40:39;;;;;;;43.03;26.67;;;8.20;99.90;;;;;;5040561;28;20418;-82
2020/12/13 08:43:07;;;;;;;45.50;28.13;;;8.20;99.90;;;;;;5057237;28;20421;-82
2020/12/13 08:45:33;;;;;;;42.30;25.10;;;8.10;99.90;;;;;;5044889;28;20391;-82
2020/12/13 08:48:05;;;;;;;39.20;24.17;;;8.10;99.90;;;;;;5060470;28;20430;-82
2020/12/13 08:50:39;;;;;;;38.30;24.23;;;8.10;99.90;;;;;;5045636;28;20401;-82
2020/12/13 08:53:25;;;;;;;41.10;24.83;;;8.10;99.90;;;;;;5039889;28;20409;-82
2020/12/13 08:56:13;;;;;;;35.93;22.13;;;8.10;99.90;;;;;;5013221;28;20374;-82
2020/12/13 08:59:00;;;;;;;38.30;22.77;;;8.10;99.90;;;;;;5063267;28;20410;-82
2020/12/13 09:01:37;;;;;;;39.07;22.43;;;8.10;99.90;;;;;;5052294;28;20449;-82
2020/12/13 09:04:19;;;;;;;36.30;24.23;;;8.10;99.90;;;;;;5045103;28;20399;-82
2020/12/13 09:06:53;;;;;;;37.10;22.67;;;8.10;99.90;;;;;;5045610;28;20848;-82
2020/12/13 09:09:20;;;;;;;32.87;22.33;;;8.10;99.90;;;;;;5024716;28;20774;-82
2020/12/13 09:11:45;;;;;;;33.20;21.30;;;8.10;99.90;;;;;;5045008;28;20366;-82
2020/12/13 09:14:12;;;;;;;37.87;22.03;;;8.20;99.90;;;;;;5061541;28;21173;-82
2020/12/13 09:16:38;;;;;;;32.67;20.83;;;8.20;99.90;;;;;;5027368;28;20236;-82
2020/12/13 09:19:12;;;;;;;37.53;19.50;;;8.10;99.90;;;;;;5046632;28;20453;-82
2020/12/13 09:21:57;;;;;;;34.70;21.40;;;8.10;99.90;;;;;;5061689;28;20204;-82
2020/12/13 09:24:32;;;;;;;28.43;19.30;;;8.10;99.90;;;;;;5063532;28;20433;-82
2020/12/13 09:27:07;;;;;;;34.20;19.80;;;8.10;99.90;;;;;;5064318;28;20907;-81
2020/12/13 09:29:38;;;;;;;28.47;20.93;;;8.10;99.90;;;;;;5046116;28;20421;-81
2020/12/13 09:32:07;;;;;;;32.30;22.63;;;8.10;99.90;;;;;;5041857;28;21165;-82
2020/12/13 09:34:57;;;;;;;33.20;21.07;;;8.10;99.90;;;;;;5058374;28;20403;-81
2020/12/13 09:37:24;;;;;;;26.83;18.63;;;8.10;99.90;;;;;;4965205;28;20428;-81
2020/12/13 09:39:49;;;;;;;28.83;18.70;;;8.00;99.90;;;;;;4934223;28;21335;-81
2020/12/13 09:42:16;;;;;;;36.27;20.53;;;8.10;99.90;;;;;;4966444;28;20405;-82
2020/12/13 09:44:47;;;;;;;30.90;19.93;;;8.00;99.90;;;;;;4937428;28;20647;-81
2020/12/13 09:47:12;;;;;;;31.37;20.27;;;8.00;99.90;;;;;;4970943;28;20939;-81
2020/12/13 09:49:40;;;;;;;36.90;20.70;;;8.00;99.90;;;;;;4964060;28;20419;-81
2020/12/13 09:52:06;;;;;;;34.60;19.80;;;8.00;99.90;;;;;;4966574;28;20208;-81
2020/12/13 09:54:32;;;;;;;44.70;20.87;;;8.00;99.90;;;;;;4951590;28;20536;-81
2020/12/13 09:56:58;;;;;;;36.93;20.30;;;7.90;99.90;;;;;;4950179;28;21007;-81
2020/12/13 09:59:26;;;;;;;38.27;21.60;;;7.90;99.90;;;;;;4935655;28;20225;-81
2020/12/13 10:01:52;;;;;;;30.47;19.23;;;8.00;99.90;;;;;;4947098;28;20371;-81
2020/12/13 10:04:20;;;;;;;41.83;19.70;;;8.00;99.90;;;;;;4951943;28;20444;-81
2020/12/13 10:06:54;;;;;;;32.30;20.03;;;8.10;99.90;;;;;;4957577;28;20215;-81
2020/12/13 10:09:22;;;;;;;31.43;18.87;;;8.20;99.90;;;;;;4948794;28;20398;-81
2020/12/13 10:11:48;;;;;;;33.07;18.13;;;8.30;99.90;;;;;;4967687;28;20461;-81
2020/12/13 10:14:15;;;;;;;33.43;19.10;;;8.40;99.90;;;;;;4972163;28;20457;-81
2020/12/13 10:16:43;;;;;;;26.30;16.03;;;8.50;99.90;;;;;;5047061;28;20244;-81
2020/12/13 10:19:09;;;;;;;28.30;15.33;;;8.60;99.90;;;;;;5044270;28;20423;-81
2020/12/13 10:21:36;;;;;;;23.47;16.60;;;8.60;99.90;;;;;;5034368;28;20403;-81
2020/12/13 10:24:04;;;;;;;23.10;15.90;;;8.70;99.90;;;;;;5023970;28;20869;-81
2020/12/13 10:26:32;;;;;;;23.57;14.70;;;8.70;99.90;;;;;;5041812;28;20937;-81
2020/12/13 10:28:59;;;;;;;25.17;15.53;;;8.70;99.90;;;;;;5042806;28;20428;-81
2020/12/13 10:31:30;;;;;;;25.50;13.80;;;8.50;99.90;;;;;;5041974;28;20493;-81
2020/12/13 10:33:57;;;;;;;29.20;13.50;;;8.50;99.90;;;;;;5044595;28;20414;-81
2020/12/13 10:36:24;;;;;;;31.40;13.60;;;8.40;99.90;;;;;;5058930;28;20419;-81
2020/12/13 10:38:51;;;;;;;22.33;14.03;;;8.30;99.90;;;;;;5057923;28;20438;-81
2020/12/13 10:41:19;;;;;;;22.40;15.13;;;8.50;99.90;;;;;;5042001;28;20412;-81
2020/12/13 10:43:45;;;;;;;21.20;13.60;;;8.30;99.90;;;;;;5057655;28;20457;-81
2020/12/13 10:46:38;;;;;;;21.23;14.23;;;8.20;99.90;;;;;;5045671;28;20385;-81
2020/12/13 10:49:03;;;;;;;21.37;14.10;;;8.40;99.90;;;;;;4998468;28;20465;-81
2020/12/13 10:51:30;;;;;;;21.97;12.13;;;8.50;99.90;;;;;;4985884;28;20481;-81
2020/12/13 10:53:57;;;;;;;25.07;14.27;;;8.50;99.90;;;;;;4984275;28;21142;-80
2020/12/13 10:56:23;;;;;;;21.50;13.13;;;8.70;99.90;;;;;;5018733;28;20447;-81
2020/12/13 10:58:49;;;;;;;24.40;13.77;;;8.80;99.90;;;;;;5002499;28;20402;-82
2020/12/13 11:01:16;;;;;;;16.03;11.70;;;8.80;99.90;;;;;;5003059;28;21275;-81
2020/12/13 11:03:41;;;;;;;18.10;11.43;;;8.80;99.90;;;;;;5005149;28;20384;-81
2020/12/13 11:06:09;;;;;;;21.50;13.83;;;8.70;99.90;;;;;;5004284;28;20419;-81
2020/12/13 11:08:38;;;;;;;14.80;11.50;;;8.70;99.90;;;;;;4991588;28;20221;-81
2020/12/13 11:11:05;;;;;;;17.63;10.63;;;8.80;99.90;;;;;;4991563;28;21386;-80
2020/12/13 11:13:31;;;;;;;19.10;10.93;;;8.70;99.90;;;;;;5006139;28;20430;-80
2020/12/13 11:15:57;;;;;;;14.47;10.50;;;8.80;99.90;;;;;;5008595;28;20406;-81
2020/12/13 11:18:23;;;;;;;15.10;9.93;;;8.70;99.90;;;;;;5005080;28;20650;-81
2020/12/13 11:20:49;;;;;;;15.43;9.73;;;8.70;99.90;;;;;;4974826;28;20453;-81
2020/12/13 11:23:15;;;;;;;15.67;10.70;;;8.70;99.90;;;;;;5003761;28;20214;-81
2020/12/13 11:25:42;;;;;;;17.33;10.20;;;8.70;99.90;;;;;;5021877;28;20217;-82
2020/12/13 11:28:10;;;;;;;27.10;11.67;;;8.80;99.90;;;;;;5043061;28;21340;-81
2020/12/13 11:30:35;;;;;;;16.33;10.30;;;9.00;99.90;;;;;;5041050;28;21032;-82
2020/12/13 11:33:02;;;;;;;13.33;10.40;;;9.20;99.90;;;;;;5026204;28;20446;-81
2020/12/13 11:35:28;;;;;;;12.63;9.90;;;9.00;99.90;;;;;;5054105;28;20210;-82
2020/12/13 11:38:18;;;;;;;15.83;9.70;;;8.90;99.90;;;;;;5051660;28;20427;-81
2020/12/13 11:40:44;;;;;;;16.80;9.80;;;8.90;99.90;;;;;;4938070;28;20227;-82
2020/12/13 11:43:09;;;;;;;17.40;13.70;;;8.70;99.90;;;;;;4935455;28;20422;-81
2020/12/13 11:45:35;;;;;;;15.70;8.97;;;8.80;99.90;;;;;;4967695;28;20506;-81
2020/12/13 11:48:02;;;;;;;11.00;8.57;;;8.80;99.90;;;;;;4932001;28;20213;-80
2020/12/13 11:50:40;;;;;;;12.83;8.70;;;8.80;99.90;;;;;;4981128;28;20220;-81
2020/12/13 11:53:08;;;;;;;14.20;9.90;;;8.80;99.90;;;;;;4950909;28;20434;-81
2020/12/13 11:55:35;;;;;;;16.37;9.10;;;9.00;99.90;;;;;;4964755;28;20419;-80
2020/12/13 11:58:01;;;;;;;12.83;8.30;;;9.00;99.90;;;;;;4966190;28;20952;-80
2020/12/13 12:00:27;;;;;;;16.80;10.87;;;9.20;99.90;;;;;;4963558;28;20531;-81
2020/12/13 12:02:55;;;;;;;17.20;11.00;;;9.40;99.90;;;;;;4980621;28;21078;-80
2020/12/13 12:05:23;;;;;;;15.33;11.67;;;9.80;99.90;;;;;;4959975;28;20251;-80
2020/12/13 12:07:49;;;;;;;11.47;8.67;;;9.90;99.90;;;;;;4976314;28;20664;-81
2020/12/13 12:10:16;;;;;;;19.10;9.17;;;10.40;99.90;;;;;;4983003;28;20419;-80
2020/12/13 12:12:44;;;;;;;11.93;7.93;;;10.60;99.90;;;;;;4965948;28;20442;-81
2020/12/13 12:15:10;;;;;;;17.03;8.50;;;10.60;99.90;;;;;;4968472;28;20404;-81
2020/12/13 12:17:36;;;;;;;11.43;8.30;;;10.40;99.90;;;;;;5001299;28;20552;-81
2020/12/13 12:20:04;;;;;;;11.30;7.67;;;9.50;99.90;;;;;;5056513;28;20527;-81
2020/12/13 12:22:29;;;;;;;9.60;7.80;;;9.50;99.90;;;;;;5029936;28;21148;-80
2020/12/13 12:24:55;;;;;;;12.57;8.33;;;9.60;99.90;;;;;;5026930;28;20537;-80
2020/12/13 12:27:21;;;;;;;13.23;8.03;;;9.30;99.90;;;;;;5060068;28;21098;-81
2020/12/13 12:29:48;;;;;;;10.47;8.60;;;9.60;99.90;;;;;;5044061;28;20216;-81
2020/12/13 12:32:15;;;;;;;8.80;7.83;;;9.70;99.90;;;;;;5042610;28;20202;-81
2020/12/13 12:34:44;;;;;;;12.13;8.03;;;9.90;99.90;;;;;;5017786;28;20466;-81
2020/12/13 12:37:10;;;;;;;11.10;7.43;;;10.50;99.90;;;;;;5037143;28;20420;-80
2020/12/13 12:39:36;;;;;;;13.10;6.57;;;12.50;99.90;;;;;;5062607;28;20436;-81
2020/12/13 12:42:03;;;;;;;8.20;6.07;;;13.60;99.90;;;;;;5071153;28;20203;-79
2020/12/13 12:44:30;;;;;;;8.37;6.13;;;13.80;99.90;;;;;;5039793;28;20211;-79
2020/12/13 12:46:56;;;;;;;7.17;5.80;;;12.60;99.90;;;;;;5040523;28;21036;-79
2020/12/13 12:49:22;;;;;;;7.90;5.80;;;13.40;99.90;;;;;;5029001;28;20522;-79